createdAt,value
2023-01-10T00:01:32.823Z,6.75
2023-01-10T00:04:10.127Z,7.45
2023-01-10T00:06:41.801Z,6.47
2023-01-10T00:09:11.268Z,6.45
2023-01-10T00:11:58.632Z,6.32
2023-01-10T00:14:30.114Z,6.55
2023-01-10T00:17:01.140Z,6.93
2023-01-10T00:19:41.616Z,7.13
2023-01-10T00:22:25.164Z,5.20
2023-01-10T00:25:06.626Z,5.60
2023-01-10T00:28:01.790Z,5.50
2023-01-10T00:30:35.197Z,5.82
2023-01-10T00:33:22.798Z,5.25
2023-01-10T00:35:51.177Z,5.78
2023-01-10T00:38:19.671Z,5.38
2023-01-10T00:40:59.582Z,5.32
2023-01-10T00:43:58.137Z,5.18
2023-01-10T00:46:33.214Z,6.50
2023-01-10T00:49:09.420Z,5.85
2023-01-10T00:51:40.303Z,5.13
2023-01-10T00:54:10.292Z,5.07
2023-01-10T00:56:39.123Z,5.05
2023-01-10T00:59:09.549Z,5.10
2023-01-10T01:01:39.533Z,4.28
2023-01-10T01:04:09.573Z,4.68
2023-01-10T01:06:40.512Z,4.65
2023-01-10T01:09:08.927Z,3.88
2023-01-10T01:11:38.516Z,4.38
2023-01-10T01:14:08.015Z,4.65
2023-01-10T01:16:39.272Z,4.00
2023-01-10T01:19:09.970Z,4.43
2023-01-10T01:21:38.698Z,4.32
2023-01-10T01:24:12.004Z,3.00
2023-01-10T01:26:48.789Z,3.22
2023-01-10T01:29:19.393Z,3.45
2023-01-10T01:31:48.492Z,3.65
2023-01-10T01:34:16.998Z,3.13
2023-01-10T01:36:58.262Z,5.45
2023-01-10T01:39:27.752Z,3.90
2023-01-10T01:42:03.930Z,5.43
2023-01-10T01:45:07.285Z,3.78
2023-01-10T01:47:45.740Z,3.45
2023-01-10T01:50:25.637Z,3.42
2023-01-10T01:52:57.421Z,2.40
2023-01-10T01:55:26.907Z,2.83
2023-01-10T01:58:01.486Z,2.63
2023-01-10T02:00:30.718Z,3.33
2023-01-10T02:03:18.601Z,2.90
2023-01-10T02:05:47.275Z,2.33
2023-01-10T02:08:15.868Z,2.50
2023-01-10T02:11:03.214Z,2.55
2023-01-10T02:13:34.447Z,2.22
2023-01-10T02:16:02.919Z,3.00
2023-01-10T02:18:34.807Z,2.47
2023-01-10T02:21:09.412Z,2.10
2023-01-10T02:23:45.631Z,2.45
2023-01-10T02:26:22.644Z,2.50
2023-01-10T02:28:50.991Z,2.83
2023-01-10T02:31:39.921Z,2.35
2023-01-10T02:34:11.409Z,2.38
2023-01-10T02:36:47.710Z,2.58
2023-01-10T02:39:16.165Z,2.13
2023-01-10T02:41:50.686Z,2.25
2023-01-10T02:44:42.791Z,2.28
2023-01-10T02:47:14.237Z,2.45
2023-01-10T02:49:46.923Z,3.40
2023-01-10T02:52:31.716Z,2.67
2023-01-10T02:55:03.653Z,2.85
2023-01-10T02:57:55.079Z,1.83
2023-01-10T03:01:02.740Z,2.53
2023-01-10T03:03:41.595Z,2.38
2023-01-10T03:06:18.422Z,1.65
2023-01-10T03:08:56.388Z,2.53
2023-01-10T03:11:40.094Z,1.93
2023-01-10T03:14:23.155Z,1.90
2023-01-10T03:16:55.795Z,2.88
2023-01-10T03:19:25.273Z,2.10
2023-01-10T03:22:11.068Z,2.45
2023-01-10T03:24:59.792Z,2.60
2023-01-10T03:27:35.439Z,2.35
2023-01-10T03:30:28.478Z,2.17
2023-01-10T03:33:05.051Z,2.50
2023-01-10T03:35:41.555Z,3.45
2023-01-10T03:38:18.234Z,2.38
2023-01-10T03:40:54.354Z,2.47
2023-01-10T03:43:40.425Z,2.00
2023-01-10T03:46:13.622Z,2.63
2023-01-10T03:48:43.434Z,2.28
2023-01-10T03:51:12.971Z,2.75
2023-01-10T03:53:45.009Z,2.78
2023-01-10T03:56:21.763Z,3.15
2023-01-10T03:58:57.829Z,2.35
2023-01-10T04:01:30.732Z,3.45
2023-01-10T04:03:59.335Z,2.50
2023-01-10T04:06:31.120Z,2.22
2023-01-10T04:09:01.977Z,2.10
2023-01-10T04:11:36.903Z,2.60
2023-01-10T04:14:10.286Z,1.77
2023-01-10T04:16:46.023Z,2.67
2023-01-10T04:19:15.651Z,2.33
2023-01-10T04:21:51.085Z,2.35
2023-01-10T04:24:25.635Z,2.20
2023-01-10T04:26:59.836Z,1.98
2023-01-10T04:29:37.398Z,2.58
2023-01-10T04:32:16.572Z,2.20
2023-01-10T04:34:45.304Z,2.55
2023-01-10T04:37:16.130Z,3.13
2023-01-10T04:39:49.332Z,2.47
2023-01-10T04:42:18.270Z,2.17
2023-01-10T04:44:46.847Z,2.53
2023-01-10T04:47:22.689Z,2.30
2023-01-10T04:52:32.667Z,1.85
2023-01-10T04:55:10.675Z,2.13
2023-01-10T04:57:42.725Z,3.30
2023-01-10T05:00:12.166Z,2.58
2023-01-10T05:02:55.994Z,2.33
2023-01-10T05:05:28.482Z,3.15
2023-01-10T05:08:07.684Z,2.30
2023-01-10T05:10:54.928Z,3.53
2023-01-10T05:13:30.435Z,1.77
2023-01-10T05:16:15.527Z,2.78
2023-01-10T05:18:55.852Z,2.43
2023-01-10T05:21:33.967Z,2.58
2023-01-10T05:24:05.686Z,2.50
2023-01-10T05:26:56.092Z,3.08
2023-01-10T05:29:36.983Z,3.28
2023-01-10T05:32:07.859Z,2.70
2023-01-10T05:34:45.070Z,1.77
2023-01-10T05:37:18.723Z,2.90
2023-01-10T05:39:57.975Z,2.42
2023-01-10T05:42:41.558Z,2.10
2023-01-10T05:45:18.390Z,3.42
2023-01-10T05:47:59.088Z,3.72
2023-01-10T05:50:40.160Z,2.92
2023-01-10T05:53:17.756Z,2.42
2023-01-10T05:56:05.195Z,3.25
2023-01-10T05:58:44.328Z,2.50
2023-01-10T06:01:18.071Z,2.83
2023-01-10T06:04:04.950Z,3.00
2023-01-10T06:06:44.597Z,2.80
2023-01-10T06:09:17.808Z,2.63
2023-01-10T06:11:54.777Z,3.75
2023-01-10T06:14:28.407Z,3.88
2023-01-10T06:17:02.301Z,2.78
2023-01-10T06:19:37.623Z,2.08
2023-01-10T06:22:14.396Z,2.22
2023-01-10T06:24:51.804Z,3.38
2023-01-10T06:27:30.753Z,3.00
2023-01-10T06:30:01.347Z,4.10
2023-01-10T06:32:32.613Z,3.03
2023-01-10T06:35:01.590Z,3.65
2023-01-10T06:37:37.588Z,4.10
2023-01-10T06:40:06.638Z,3.03
2023-01-10T06:42:38.818Z,2.83
2023-01-10T06:45:07.667Z,2.40
2023-01-10T06:47:42.083Z,2.90
2023-01-10T06:50:12.635Z,2.75
2023-01-10T06:53:02.576Z,2.38
2023-01-10T06:55:39.208Z,3.40
2023-01-10T06:58:18.373Z,3.85
2023-01-10T07:00:57.423Z,3.30
2023-01-10T07:03:38.163Z,2.90
2023-01-10T07:07:35.676Z,1.95
2023-01-10T07:11:43.679Z,2.90
2023-01-10T07:14:12.687Z,2.30
2023-01-10T07:16:54.446Z,2.45
2023-01-10T07:19:32.109Z,2.38
2023-01-10T07:22:11.086Z,3.08
2023-01-10T07:24:39.458Z,3.22
2023-01-10T07:27:08.080Z,3.05
2023-01-10T07:29:37.778Z,3.13
2023-01-10T07:32:06.756Z,3.15
2023-01-10T07:34:36.321Z,2.85
2023-01-10T07:37:05.272Z,2.72
2023-01-10T07:39:34.231Z,2.72
2023-01-10T07:42:05.445Z,2.70
2023-01-10T07:44:42.513Z,3.22
2023-01-10T07:47:25.195Z,3.92
2023-01-10T07:49:55.847Z,3.20
2023-01-10T07:52:24.525Z,2.95
2023-01-10T07:54:53.754Z,3.10
2023-01-10T07:57:22.631Z,3.75
2023-01-10T07:59:51.103Z,2.72
2023-01-10T08:02:22.738Z,4.45
2023-01-10T08:04:51.290Z,2.65
2023-01-10T08:07:20.766Z,3.45
2023-01-10T08:09:50.075Z,3.75
2023-01-10T08:12:18.412Z,3.13
2023-01-10T08:14:47.719Z,4.72
2023-01-10T08:17:16.365Z,3.35
2023-01-10T08:19:47.795Z,3.80
2023-01-10T08:22:21.706Z,3.28
2023-01-10T08:24:54.265Z,2.88
2023-01-10T08:27:35.670Z,3.05
2023-01-10T08:30:14.914Z,3.20
2023-01-10T08:33:03.585Z,2.72
2023-01-10T08:35:45.027Z,3.47
2023-01-10T08:38:14.835Z,3.03
2023-01-10T08:40:59.802Z,3.97
2023-01-10T08:43:32.888Z,2.95
2023-01-10T08:46:04.308Z,3.72
2023-01-10T08:48:38.968Z,2.70
2023-01-10T08:51:17.699Z,3.00
2023-01-10T08:53:46.952Z,3.60
2023-01-10T08:56:24.189Z,2.78
2023-01-10T08:59:03.293Z,4.40
2023-01-10T09:04:17.145Z,4.07
2023-01-10T09:06:56.740Z,3.55
2023-01-10T09:09:33.840Z,2.88
2023-01-10T09:12:40.217Z,4.68
2023-01-10T09:15:14.045Z,1.83
2023-01-10T09:17:57.418Z,5.30
2023-01-10T09:20:39.486Z,3.25
2023-01-10T09:23:20.004Z,3.92
2023-01-10T09:25:49.473Z,5.05
2023-01-10T09:28:19.257Z,3.15
2023-01-10T09:30:47.966Z,3.30
2023-01-10T09:33:41.404Z,3.75
2023-01-10T09:36:16.866Z,4.15
2023-01-10T09:38:45.698Z,3.05
2023-01-10T09:41:26.534Z,4.28
2023-01-10T09:44:14.572Z,3.13
2023-01-10T09:46:54.841Z,3.15
2023-01-10T09:49:25.837Z,2.65
2023-01-10T09:51:56.005Z,3.63
2023-01-10T09:54:27.506Z,3.35
2023-01-10T09:56:56.357Z,2.80
2023-01-10T09:59:27.927Z,2.78
2023-01-10T10:02:05.554Z,2.72
2023-01-10T10:04:37.621Z,2.92
2023-01-10T10:07:09.287Z,2.75
2023-01-10T10:09:37.720Z,2.78
2023-01-10T10:12:31.505Z,2.50
2023-01-10T10:15:08.685Z,2.42
2023-01-10T10:17:48.534Z,1.65
2023-01-10T10:20:28.705Z,3.42
2023-01-10T10:23:02.896Z,2.63
2023-01-10T10:25:34.587Z,3.33
2023-01-10T10:28:31.571Z,3.38
2023-01-10T10:31:28.876Z,2.75
2023-01-10T10:33:59.830Z,2.35
2023-01-10T10:36:37.471Z,2.97
2023-01-10T10:39:13.403Z,2.72
2023-01-10T10:41:43.713Z,3.63
2023-01-10T10:44:32.330Z,3.35
2023-01-10T10:47:01.727Z,2.50
2023-01-10T10:49:37.562Z,2.92
2023-01-10T10:52:13.355Z,2.03
2023-01-10T10:54:41.743Z,3.22
2023-01-10T10:57:14.971Z,3.35
2023-01-10T10:59:45.823Z,2.83
2023-01-10T11:02:26.025Z,2.72
2023-01-10T11:05:17.017Z,2.15
2023-01-10T11:07:53.862Z,2.83
2023-01-10T11:10:38.364Z,3.00
2023-01-10T11:13:28.963Z,3.20
2023-01-10T11:18:31.780Z,2.35
2023-01-10T11:21:02.265Z,3.28
2023-01-10T11:23:31.975Z,2.35
2023-01-10T11:26:00.405Z,2.85
2023-01-10T11:28:30.997Z,2.42
2023-01-10T11:31:03.121Z,3.58
2023-01-10T11:33:36.186Z,2.85
2023-01-10T11:36:08.731Z,2.20
2023-01-10T11:38:38.083Z,3.03
2023-01-10T11:41:07.634Z,1.38
2023-01-10T11:43:42.166Z,2.60
2023-01-10T11:46:20.578Z,3.20
2023-01-10T11:49:19.565Z,1.83
2023-01-10T11:51:51.822Z,2.78
2023-01-10T11:54:22.873Z,2.90
2023-01-10T11:57:01.329Z,1.80
2023-01-10T11:59:32.913Z,2.45
2023-01-10T12:02:21.646Z,2.22
2023-01-10T12:05:01.465Z,2.13
2023-01-10T12:07:32.003Z,2.65
2023-01-10T12:10:03.100Z,2.20
2023-01-10T12:12:53.162Z,2.65
2023-01-10T12:15:22.844Z,2.47
2023-01-10T12:17:52.030Z,3.40
2023-01-10T12:20:20.364Z,2.45
2023-01-10T12:22:53.947Z,2.13
2023-01-10T12:25:35.459Z,2.88
2023-01-10T12:28:05.404Z,2.55
2023-01-10T12:30:38.882Z,3.13
2023-01-10T12:33:39.133Z,3.10
2023-01-10T12:36:26.240Z,2.03
2023-01-10T12:39:06.444Z,2.13
2023-01-10T12:42:02.169Z,2.50
2023-01-10T12:44:36.323Z,2.40
2023-01-10T12:47:23.491Z,2.53
2023-01-10T12:50:00.204Z,3.95
2023-01-10T12:52:32.024Z,2.80
2023-01-10T12:55:00.809Z,2.45
2023-01-10T12:57:36.739Z,3.88
2023-01-10T13:00:06.349Z,2.60
2023-01-10T13:03:00.444Z,3.05
2023-01-10T13:05:32.249Z,1.83
2023-01-10T13:08:12.903Z,2.35
2023-01-10T13:10:43.212Z,1.95
2023-01-10T13:13:11.516Z,2.05
2023-01-10T13:15:42.955Z,1.85
2023-01-10T13:18:19.005Z,2.75
2023-01-10T13:20:49.672Z,1.90
2023-01-10T13:23:34.638Z,1.58
2023-01-10T13:26:11.080Z,1.52
2023-01-10T13:31:45.866Z,2.10
2023-01-10T13:34:20.208Z,1.30
2023-01-10T13:37:12.813Z,1.45
2023-01-10T13:39:52.527Z,1.95
2023-01-10T13:42:44.662Z,3.22
2023-01-10T13:45:15.189Z,1.63
2023-01-10T13:47:48.235Z,1.97
2023-01-10T13:50:24.498Z,1.52
2023-01-10T13:55:21.907Z,2.05
2023-01-10T13:57:51.445Z,2.30
2023-01-10T14:00:40.236Z,1.70
2023-01-10T14:03:08.652Z,2.20
2023-01-10T14:05:39.199Z,1.23
2023-01-10T14:08:16.918Z,1.58
2023-01-10T14:10:47.468Z,1.50
2023-01-10T14:13:20.620Z,1.92
2023-01-10T14:15:58.020Z,1.60
2023-01-10T14:18:29.837Z,1.88
2023-01-10T14:21:06.024Z,1.52
2023-01-10T14:23:50.502Z,1.95
2023-01-10T14:26:22.759Z,1.80
2023-01-10T14:28:54.567Z,1.52
2023-01-10T14:31:37.158Z,0.98
2023-01-10T14:34:14.884Z,1.48
2023-01-10T14:36:58.700Z,2.33
2023-01-10T14:39:43.134Z,1.73
2023-01-10T14:42:16.669Z,0.95
2023-01-10T14:45:00.911Z,2.45
2023-01-10T14:47:37.639Z,1.77
2023-01-10T14:50:05.939Z,1.73
2023-01-10T14:52:43.484Z,0.73
2023-01-10T14:55:16.580Z,2.58
2023-01-10T14:57:57.050Z,1.98
2023-01-10T15:00:27.099Z,1.45
2023-01-10T15:03:19.385Z,1.08
2023-01-10T15:05:50.427Z,1.52
2023-01-10T15:08:26.500Z,2.22
2023-01-10T15:11:05.818Z,0.90
2023-01-10T15:13:36.718Z,1.60
2023-01-10T15:16:07.877Z,2.25
2023-01-10T15:18:46.131Z,1.20
2023-01-10T15:21:16.179Z,1.80
2023-01-10T15:23:46.921Z,1.92
2023-01-10T15:26:18.364Z,2.10
2023-01-10T15:28:49.234Z,2.40
2023-01-10T15:31:21.087Z,2.20
2023-01-10T15:33:56.666Z,2.33
2023-01-10T15:36:27.002Z,4.00
2023-01-10T15:38:58.108Z,2.35
2023-01-10T15:41:27.417Z,2.22
2023-01-10T15:44:26.687Z,4.25
2023-01-10T15:47:00.251Z,3.92
2023-01-10T15:49:32.199Z,12.85
2023-01-10T15:52:02.852Z,5.70
2023-01-10T15:54:37.713Z,6.05
2023-01-10T15:57:20.853Z,3.28
2023-01-10T15:59:52.091Z,1.95
2023-01-10T16:02:24.547Z,2.95
2023-01-10T16:04:57.301Z,1.67
2023-01-10T16:07:42.699Z,1.77
2023-01-10T16:13:09.815Z,2.85
2023-01-10T16:15:39.120Z,2.42
2023-01-10T16:18:08.251Z,2.55
2023-01-10T16:20:45.292Z,2.10
2023-01-10T16:23:17.457Z,2.40
2023-01-10T16:25:47.286Z,2.63
2023-01-10T16:28:17.651Z,2.28
2023-01-10T16:30:46.835Z,1.30
2023-01-10T16:33:32.084Z,2.17
2023-01-10T16:36:01.287Z,1.70
2023-01-10T16:38:37.953Z,1.48
2023-01-10T16:41:30.744Z,2.53
2023-01-10T16:44:03.167Z,2.15
2023-01-10T16:46:33.240Z,2.72
2023-01-10T16:49:05.565Z,2.60
2023-01-10T16:51:39.290Z,1.42
2023-01-10T16:54:13.901Z,2.05
2023-01-10T16:56:45.095Z,2.25
2023-01-10T16:59:14.442Z,2.78
2023-01-10T17:01:46.487Z,2.65
2023-01-10T17:04:19.413Z,1.27
2023-01-10T17:07:06.965Z,2.35
2023-01-10T17:09:48.482Z,2.03
2023-01-10T17:12:34.313Z,2.70
2023-01-10T17:15:15.087Z,1.33
2023-01-10T17:18:05.461Z,2.35
2023-01-10T17:20:46.268Z,1.77
2023-01-10T17:23:30.759Z,3.70
2023-01-10T17:26:06.962Z,2.85
2023-01-10T17:28:42.443Z,2.50
2023-01-10T17:31:10.984Z,2.92
2023-01-10T17:33:40.624Z,2.50
2023-01-10T17:36:11.275Z,2.85
2023-01-10T17:38:40.257Z,1.80
2023-01-10T17:41:10.362Z,2.85
2023-01-10T17:43:39.293Z,1.70
2023-01-10T17:46:08.059Z,2.13
2023-01-10T17:48:37.469Z,3.13
2023-01-10T17:51:14.989Z,4.50
2023-01-10T17:53:47.177Z,3.38
2023-01-10T17:56:27.802Z,2.67
2023-01-10T17:59:05.969Z,2.35
2023-01-10T18:01:49.161Z,3.87
2023-01-10T18:04:27.728Z,5.82
2023-01-10T18:07:07.044Z,4.03
2023-01-10T18:09:41.927Z,4.15
2023-01-10T18:12:10.800Z,2.30
2023-01-10T18:14:40.007Z,1.38
2023-01-10T18:17:13.971Z,1.30
2023-01-10T18:19:42.368Z,2.55
2023-01-10T18:22:28.793Z,3.05
2023-01-10T18:25:07.878Z,2.00
2023-01-10T18:27:43.761Z,3.00
2023-01-10T18:30:18.816Z,2.28
2023-01-10T18:33:09.110Z,2.05
2023-01-10T18:35:48.714Z,2.67
2023-01-10T18:38:17.602Z,1.45
2023-01-10T18:40:47.216Z,3.13
2023-01-10T18:43:16.438Z,1.73
2023-01-10T18:45:59.869Z,1.52
2023-01-10T18:48:31.716Z,2.08
2023-01-10T18:51:08.965Z,1.27
2023-01-10T18:53:44.490Z,2.42
2023-01-10T18:56:23.243Z,1.98
2023-01-10T18:58:58.678Z,1.70
2023-01-10T19:01:35.886Z,2.15
2023-01-10T19:04:06.686Z,2.60
2023-01-10T19:06:44.250Z,2.67
2023-01-10T19:09:12.878Z,1.33
2023-01-10T19:11:44.412Z,2.03
2023-01-10T19:14:15.547Z,2.10
2023-01-10T19:16:53.274Z,1.65
2023-01-10T19:19:27.232Z,1.33
2023-01-10T19:21:59.329Z,2.10
2023-01-10T19:24:37.642Z,3.10
2023-01-10T19:27:06.164Z,1.92
2023-01-10T19:29:36.791Z,1.08
2023-01-10T19:32:05.276Z,1.27
2023-01-10T19:34:37.369Z,1.98
2023-01-10T19:37:06.482Z,1.42
2023-01-10T19:39:41.922Z,1.40
2023-01-10T19:42:25.788Z,1.40
2023-01-10T19:45:13.490Z,2.28
2023-01-10T19:48:01.177Z,1.55
2023-01-10T19:50:35.644Z,1.45
2023-01-10T19:53:23.716Z,1.92
2023-01-10T19:56:07.430Z,1.05
2023-01-10T19:58:55.984Z,1.58
2023-01-10T20:01:39.271Z,1.38
2023-01-10T20:04:20.783Z,2.05
2023-01-10T20:07:02.603Z,1.45
2023-01-10T20:09:49.238Z,0.90
2023-01-10T20:12:17.972Z,2.00
2023-01-10T20:14:46.638Z,1.30
2023-01-10T20:17:15.378Z,1.73
2023-01-10T20:19:43.747Z,1.58
2023-01-10T20:22:12.418Z,2.47
2023-01-10T20:24:40.939Z,1.75
2023-01-10T20:27:09.543Z,1.35
2023-01-10T20:29:40.778Z,1.92
2023-01-10T20:32:12.583Z,0.95
2023-01-10T20:34:47.387Z,2.20
2023-01-10T20:37:16.755Z,2.30
2023-01-10T20:39:44.958Z,1.92
2023-01-10T20:42:13.292Z,2.63
2023-01-10T20:44:41.905Z,2.38
2023-01-10T20:47:21.598Z,1.90
2023-01-10T20:49:55.352Z,1.98
2023-01-10T20:52:27.628Z,2.03
2023-01-10T20:55:05.466Z,4.25
2023-01-10T20:57:36.720Z,2.00
2023-01-10T21:00:06.332Z,2.53
2023-01-10T21:02:53.977Z,4.00
2023-01-10T21:05:24.726Z,2.83
2023-01-10T21:07:53.666Z,2.03
2023-01-10T21:10:24.848Z,3.00
2023-01-10T21:12:58.062Z,2.25
2023-01-10T21:17:59.901Z,1.02
2023-01-10T21:20:30.862Z,3.40
2023-01-10T21:23:00.029Z,1.05
2023-01-10T21:25:31.628Z,1.60
2023-01-10T21:28:08.829Z,1.83
2023-01-10T21:30:37.719Z,0.90
2023-01-10T21:33:23.155Z,1.67
2023-01-10T21:35:55.081Z,2.03
2023-01-10T21:38:42.473Z,1.77
2023-01-10T21:41:46.129Z,3.83
2023-01-10T21:44:27.871Z,1.10
2023-01-10T21:47:07.427Z,1.90
2023-01-10T21:49:40.417Z,2.08
2023-01-10T21:52:13.416Z,2.85
2023-01-10T21:54:56.296Z,0.90
2023-01-10T21:57:46.514Z,3.50
2023-01-10T22:00:22.745Z,3.75
2023-01-10T22:03:10.322Z,2.72
2023-01-10T22:05:51.796Z,0.93
2023-01-10T22:08:39.385Z,0.85
2023-01-10T22:11:11.008Z,2.88
2023-01-10T22:13:40.693Z,1.30
2023-01-10T22:16:09.741Z,1.55
2023-01-10T22:18:38.964Z,0.60
2023-01-10T22:21:10.011Z,1.50
2023-01-10T22:23:47.199Z,1.05
2023-01-10T22:26:19.116Z,1.92
2023-01-10T22:28:53.508Z,1.50
2023-01-10T22:31:32.416Z,1.75
2023-01-10T22:34:00.810Z,1.13
2023-01-10T22:36:33.818Z,1.40
2023-01-10T22:39:02.088Z,1.60
2023-01-10T22:41:31.850Z,1.65
2023-01-10T22:44:00.595Z,1.20
2023-01-10T22:46:31.362Z,1.60
2023-01-10T22:49:12.440Z,1.23
2023-01-10T22:51:42.709Z,1.67
2023-01-10T22:54:23.394Z,0.90
2023-01-10T22:56:52.127Z,0.70
2023-01-10T22:59:20.357Z,1.08
2023-01-10T23:01:49.415Z,0.82
2023-01-10T23:04:20.408Z,1.52
2023-01-10T23:06:50.141Z,0.70
2023-01-10T23:09:30.401Z,0.70
2023-01-10T23:12:20.463Z,0.80
2023-01-10T23:15:08.216Z,0.93
2023-01-10T23:17:52.974Z,1.38
2023-01-10T23:20:23.640Z,0.88
2023-01-10T23:22:54.656Z,1.42
2023-01-10T23:25:22.911Z,1.00
2023-01-10T23:27:52.061Z,0.50
2023-01-10T23:30:26.642Z,0.95
2023-01-10T23:33:02.703Z,0.75
2023-01-10T23:35:33.132Z,1.10
2023-01-10T23:38:02.172Z,0.90
2023-01-10T23:40:31.742Z,0.85
2023-01-10T23:43:05.806Z,0.80
2023-01-10T23:45:46.373Z,0.57
2023-01-10T23:48:25.190Z,0.60
2023-01-10T23:50:54.344Z,0.65
2023-01-10T23:53:23.127Z,0.50
2023-01-10T23:55:51.599Z,0.20
2023-01-10T23:58:19.791Z,0.43
